sensor_id;sensor_type;location;lat;lon;timestamp;pressure;altitude;pressure_sealevel;temperature;humidity
62544;BME280;48597;49.030;1.822;2022-12-18T00:01:37;101540.50;;;18.42;32.01
62544;BME280;48597;49.030;1.822;2022-12-18T00:04:06;101544.59;;;18.41;31.98
62544;BME280;48597;49.030;1.822;2022-12-18T00:06:34;101540.94;;;18.40;32.21
62544;BME280;48597;49.030;1.822;2022-12-18T00:09:02;101538.09;;;18.37;32.11
62544;BME280;48597;49.030;1.822;2022-12-18T00:11:30;101535.69;;;18.35;32.05
62544;BME280;48597;49.030;1.822;2022-12-18T00:13:57;101540.56;;;18.35;32.30
62544;BME280;48597;49.030;1.822;2022-12-18T00:16:25;101548.31;;;18.34;32.31
62544;BME280;48597;49.030;1.822;2022-12-18T00:18:53;101546.31;;;18.31;32.33
62544;BME280;48597;49.030;1.822;2022-12-18T00:21:20;101549.16;;;18.31;32.40
62544;BME280;48597;49.030;1.822;2022-12-18T00:23:46;101548.34;;;18.31;32.42
62544;BME280;48597;49.030;1.822;2022-12-18T00:26:18;101553.69;;;18.29;32.35
62544;BME280;48597;49.030;1.822;2022-12-18T00:28:44;101553.31;;;18.27;32.15
62544;BME280;48597;49.030;1.822;2022-12-18T00:31:12;101557.00;;;18.24;32.25
62544;BME280;48597;49.030;1.822;2022-12-18T00:33:38;101555.78;;;18.21;32.41
62544;BME280;48597;49.030;1.822;2022-12-18T00:36:09;101559.50;;;18.18;32.62
62544;BME280;48597;49.030;1.822;2022-12-18T00:38:36;101555.03;;;18.17;32.39
62544;BME280;48597;49.030;1.822;2022-12-18T00:41:02;101551.41;;;18.13;32.86
62544;BME280;48597;49.030;1.822;2022-12-18T00:43:28;101558.34;;;18.12;32.90
62544;BME280;48597;49.030;1.822;2022-12-18T00:45:54;101555.09;;;18.10;33.08
62544;BME280;48597;49.030;1.822;2022-12-18T00:48:20;101540.84;;;18.06;32.95
62544;BME280;48597;49.030;1.822;2022-12-18T00:50:47;101536.84;;;18.04;33.07
62544;BME280;48597;49.030;1.822;2022-12-18T00:53:13;101534.41;;;18.02;33.01
62544;BME280;48597;49.030;1.822;2022-12-18T00:55:40;101528.69;;;18.02;32.96
62544;BME280;48597;49.030;1.822;2022-12-18T00:58:05;101541.34;;;18.01;33.09
62544;BME280;48597;49.030;1.822;2022-12-18T01:00:31;101540.53;;;18.01;33.05
62544;BME280;48597;49.030;1.822;2022-12-18T01:02:56;101544.19;;;18.01;32.66
62544;BME280;48597;49.030;1.822;2022-12-18T01:05:22;101541.34;;;18.01;32.83
62544;BME280;48597;49.030;1.822;2022-12-18T01:07:47;101542.94;;;18.02;32.83
62544;BME280;48597;49.030;1.822;2022-12-18T01:10:13;101538.47;;;18.01;32.79
62544;BME280;48597;49.030;1.822;2022-12-18T01:12:39;101542.16;;;18.02;32.78
62544;BME280;48597;49.030;1.822;2022-12-18T01:15:06;101536.38;;;18.05;32.93
62544;BME280;48597;49.030;1.822;2022-12-18T01:17:32;101534.34;;;18.06;32.90
62544;BME280;48597;49.030;1.822;2022-12-18T01:19:57;101530.66;;;18.09;33.01
62544;BME280;48597;49.030;1.822;2022-12-18T01:22:23;101533.50;;;18.09;32.74
62544;BME280;48597;49.030;1.822;2022-12-18T01:24:48;101535.13;;;18.10;32.74
62544;BME280;48597;49.030;1.822;2022-12-18T01:27:14;101531.84;;;18.11;32.78
62544;BME280;48597;49.030;1.822;2022-12-18T01:29:41;101529.38;;;18.13;32.79
62544;BME280;48597;49.030;1.822;2022-12-18T01:32:07;101528.16;;;18.14;32.96
62544;BME280;48597;49.030;1.822;2022-12-18T01:34:35;101538.34;;;18.15;32.54
62544;BME280;48597;49.030;1.822;2022-12-18T01:37:03;101530.19;;;18.14;32.62
62544;BME280;48597;49.030;1.822;2022-12-18T01:39:28;101524.47;;;18.17;32.53
62544;BME280;48597;49.030;1.822;2022-12-18T01:41:53;101534.19;;;18.20;32.65
62544;BME280;48597;49.030;1.822;2022-12-18T01:47:22;101524.00;;;18.23;32.23
62544;BME280;48597;49.030;1.822;2022-12-18T01:49:49;101524.34;;;18.28;32.22
62544;BME280;48597;49.030;1.822;2022-12-18T01:52:15;101520.31;;;18.22;32.15
62544;BME280;48597;49.030;1.822;2022-12-18T01:54:42;101517.13;;;18.16;32.20
62544;BME280;48597;49.030;1.822;2022-12-18T01:57:08;101515.53;;;18.15;32.56
62544;BME280;48597;49.030;1.822;2022-12-18T01:59:35;101518.38;;;18.15;32.73
62544;BME280;48597;49.030;1.822;2022-12-18T02:02:02;101514.72;;;18.11;32.79
62544;BME280;48597;49.030;1.822;2022-12-18T02:04:28;101517.19;;;18.09;32.65
62544;BME280;48597;49.030;1.822;2022-12-18T02:09:41;101513.56;;;18.05;32.78
62544;BME280;48597;49.030;1.822;2022-12-18T02:12:24;101513.19;;;18.03;33.00
62544;BME280;48597;49.030;1.822;2022-12-18T02:15:15;101509.13;;;18.04;33.31
62544;BME280;48597;49.030;1.822;2022-12-18T02:17:48;101505.88;;;18.02;32.97
62544;BME280;48597;49.030;1.822;2022-12-18T02:20:32;101494.88;;;18.01;32.71
62544;BME280;48597;49.030;1.822;2022-12-18T02:25:52;101483.06;;;17.99;33.04
62544;BME280;48597;49.030;1.822;2022-12-18T02:28:20;101483.88;;;17.99;32.83
62544;BME280;48597;49.030;1.822;2022-12-18T02:30:48;101492.88;;;17.98;32.55
62544;BME280;48597;49.030;1.822;2022-12-18T02:33:16;101485.50;;;18.00;32.69
62544;BME280;48597;49.030;1.822;2022-12-18T02:35:45;101492.44;;;17.99;32.90
62544;BME280;48597;49.030;1.822;2022-12-18T02:38:12;101487.13;;;18.01;32.43
62544;BME280;48597;49.030;1.822;2022-12-18T02:40:38;101499.28;;;18.05;32.53
62544;BME280;48597;49.030;1.822;2022-12-18T02:43:14;101498.50;;;18.05;32.53
62544;BME280;48597;49.030;1.822;2022-12-18T02:45:57;101490.31;;;18.07;32.37
62544;BME280;48597;49.030;1.822;2022-12-18T02:48:33;101482.97;;;18.09;32.11
62544;BME280;48597;49.030;1.822;2022-12-18T02:51:17;101482.56;;;18.07;32.10
62544;BME280;48597;49.030;1.822;2022-12-18T02:53:53;101479.69;;;18.11;32.13
62544;BME280;48597;49.030;1.822;2022-12-18T02:56:32;101480.88;;;18.13;32.16
62544;BME280;48597;49.030;1.822;2022-12-18T02:59:11;101478.84;;;18.14;31.91
62544;BME280;48597;49.030;1.822;2022-12-18T03:02:04;101484.94;;;18.16;31.89
62544;BME280;48597;49.030;1.822;2022-12-18T03:04:39;101486.56;;;18.17;31.69
62544;BME280;48597;49.030;1.822;2022-12-18T03:07:11;101486.56;;;18.17;31.59
62544;BME280;48597;49.030;1.822;2022-12-18T03:09:44;101481.66;;;18.17;31.58
62544;BME280;48597;49.030;1.822;2022-12-18T03:12:18;101480.06;;;18.16;31.65
62544;BME280;48597;49.030;1.822;2022-12-18T03:15:25;101484.53;;;18.17;31.54
62544;BME280;48597;49.030;1.822;2022-12-18T03:18:02;101478.38;;;18.19;31.47
62544;BME280;48597;49.030;1.822;2022-12-18T03:20:31;101478.75;;;18.21;31.28
62544;BME280;48597;49.030;1.822;2022-12-18T03:23:09;101473.88;;;18.18;31.27
62544;BME280;48597;49.030;1.822;2022-12-18T03:25:40;101473.88;;;18.18;31.24
62544;BME280;48597;49.030;1.822;2022-12-18T03:28:12;101468.19;;;18.18;31.33
62544;BME280;48597;49.030;1.822;2022-12-18T03:30:40;101460.81;;;18.20;31.37
62544;BME280;48597;49.030;1.822;2022-12-18T03:33:20;101465.78;;;18.16;31.67
62544;BME280;48597;49.030;1.822;2022-12-18T03:35:48;101463.78;;;18.13;32.38
62544;BME280;48597;49.030;1.822;2022-12-18T03:38:14;101458.44;;;18.15;32.70
62544;BME280;48597;49.030;1.822;2022-12-18T03:43:18;101449.53;;;18.10;32.51
62544;BME280;48597;49.030;1.822;2022-12-18T03:45:56;101443.03;;;18.09;32.62
62544;BME280;48597;49.030;1.822;2022-12-18T03:48:32;101449.16;;;18.08;32.34
62544;BME280;48597;49.030;1.822;2022-12-18T03:51:08;101452.41;;;18.06;32.59
62544;BME280;48597;49.030;1.822;2022-12-18T03:54:00;101443.06;;;18.06;32.58
62544;BME280;48597;49.030;1.822;2022-12-18T03:56:29;101441.44;;;18.05;32.61
62544;BME280;48597;49.030;1.822;2022-12-18T03:59:00;101429.25;;;18.04;32.70
62544;BME280;48597;49.030;1.822;2022-12-18T04:01:47;101432.09;;;18.04;32.60
62544;BME280;48597;49.030;1.822;2022-12-18T04:04:15;101427.97;;;18.05;32.25
62544;BME280;48597;49.030;1.822;2022-12-18T04:06:43;101425.94;;;18.06;32.19
62544;BME280;48597;49.030;1.822;2022-12-18T04:09:10;101429.59;;;18.06;32.16
62544;BME280;48597;49.030;1.822;2022-12-18T04:11:35;101429.59;;;18.06;32.16
62544;BME280;48597;49.030;1.822;2022-12-18T04:14:00;101423.47;;;18.08;31.77
62544;BME280;48597;49.030;1.822;2022-12-18T04:16:27;101425.91;;;18.09;31.77
62544;BME280;48597;49.030;1.822;2022-12-18T04:18:53;101421.00;;;18.10;31.75
62544;BME280;48597;49.030;1.822;2022-12-18T04:21:19;101434.47;;;18.09;31.56
62544;BME280;48597;49.030;1.822;2022-12-18T04:23:44;101448.72;;;18.09;31.49
62544;BME280;48597;49.030;1.822;2022-12-18T04:26:10;101440.16;;;18.09;31.33
62544;BME280;48597;49.030;1.822;2022-12-18T04:28:35;101426.72;;;18.10;31.49
62544;BME280;48597;49.030;1.822;2022-12-18T04:31:01;101442.19;;;18.12;31.30
62544;BME280;48597;49.030;1.822;2022-12-18T04:33:26;101441.38;;;18.12;31.33
62544;BME280;48597;49.030;1.822;2022-12-18T04:35:52;101446.66;;;18.13;31.21
62544;BME280;48597;49.030;1.822;2022-12-18T04:38:18;101441.34;;;18.15;31.21
62544;BME280;48597;49.030;1.822;2022-12-18T04:40:44;101445.84;;;18.13;31.21
62544;BME280;48597;49.030;1.822;2022-12-18T04:43:09;101446.25;;;18.11;31.27
62544;BME280;48597;49.030;1.822;2022-12-18T04:45:35;101444.59;;;18.14;31.24
62544;BME280;48597;49.030;1.822;2022-12-18T04:48:02;101437.66;;;18.15;30.99
62544;BME280;48597;49.030;1.822;2022-12-18T04:50:27;101444.59;;;18.14;30.84
62544;BME280;48597;49.030;1.822;2022-12-18T04:52:53;101440.13;;;18.13;30.76
62544;BME280;48597;49.030;1.822;2022-12-18T04:55:19;101428.72;;;18.13;30.93
62544;BME280;48597;49.030;1.822;2022-12-18T04:57:44;101442.56;;;18.14;30.80
62544;BME280;48597;49.030;1.822;2022-12-18T05:00:10;101445.00;;;18.16;30.96
62544;BME280;48597;49.030;1.822;2022-12-18T05:02:35;101451.53;;;18.13;30.58
62544;BME280;48597;49.030;1.822;2022-12-18T05:05:01;101458.47;;;18.12;30.87
62544;BME280;48597;49.030;1.822;2022-12-18T05:07:27;101466.19;;;18.15;30.87
62544;BME280;48597;49.030;1.822;2022-12-18T05:09:52;101470.72;;;18.12;30.94
62544;BME280;48597;49.030;1.822;2022-12-18T05:12:17;101471.13;;;18.11;30.65
62544;BME280;48597;49.030;1.822;2022-12-18T05:14:43;101470.28;;;18.14;30.73
62544;BME280;48597;49.030;1.822;2022-12-18T05:17:08;101467.84;;;18.12;30.81
62544;BME280;48597;49.030;1.822;2022-12-18T05:19:34;101463.00;;;18.09;30.79
62544;BME280;48597;49.030;1.822;2022-12-18T05:21:59;101466.66;;;18.10;30.62
62544;BME280;48597;49.030;1.822;2022-12-18T05:24:25;101465.81;;;18.13;30.61
62544;BME280;48597;49.030;1.822;2022-12-18T05:26:50;101465.78;;;18.16;30.53
62544;BME280;48597;49.030;1.822;2022-12-18T05:29:15;101462.53;;;18.14;31.14
62544;BME280;48597;49.030;1.822;2022-12-18T05:31:41;101465.00;;;18.12;31.05
62544;BME280;48597;49.030;1.822;2022-12-18T05:34:06;101449.50;;;18.13;31.31
62544;BME280;48597;49.030;1.822;2022-12-18T05:36:33;101447.88;;;18.12;31.35
62544;BME280;48597;49.030;1.822;2022-12-18T05:38:59;101439.31;;;18.12;31.46
62544;BME280;48597;49.030;1.822;2022-12-18T05:41:25;101440.56;;;18.11;31.50
62544;BME280;48597;49.030;1.822;2022-12-18T05:43:51;101430.38;;;18.10;31.92
62544;BME280;48597;49.030;1.822;2022-12-18T05:46:17;101411.63;;;18.09;31.80
62544;BME280;48597;49.030;1.822;2022-12-18T05:48:43;101416.94;;;18.11;31.76
62544;BME280;48597;49.030;1.822;2022-12-18T05:51:15;101432.00;;;18.11;31.79
62544;BME280;48597;49.030;1.822;2022-12-18T05:53:42;101423.47;;;18.08;31.64
62544;BME280;48597;49.030;1.822;2022-12-18T05:56:10;101427.13;;;18.08;31.55
62544;BME280;48597;49.030;1.822;2022-12-18T05:58:36;101433.22;;;18.10;31.48
62544;BME280;48597;49.030;1.822;2022-12-18T06:01:14;101429.59;;;18.06;31.49
62544;BME280;48597;49.030;1.822;2022-12-18T06:03:40;101437.81;;;18.04;31.60
62544;BME280;48597;49.030;1.822;2022-12-18T06:06:33;101430.41;;;18.07;31.18
62544;BME280;48597;49.030;1.822;2022-12-18T06:08:58;101434.94;;;18.04;30.91
62544;BME280;48597;49.030;1.822;2022-12-18T06:11:26;101426.00;;;18.02;31.07
62544;BME280;48597;49.030;1.822;2022-12-18T06:13:53;101431.69;;;18.02;31.03
62544;BME280;48597;49.030;1.822;2022-12-18T06:16:18;101430.09;;;18.01;30.98
62544;BME280;48597;49.030;1.822;2022-12-18T06:18:44;101426.03;;;17.99;31.00
62544;BME280;48597;49.030;1.822;2022-12-18T06:21:11;101426.88;;;17.96;31.08
62544;BME280;48597;49.030;1.822;2022-12-18T06:23:36;101431.38;;;17.93;31.14
62544;BME280;48597;49.030;1.822;2022-12-18T06:26:08;101425.72;;;17.90;31.36
62544;BME280;48597;49.030;1.822;2022-12-18T06:28:33;101423.31;;;17.88;31.48
62544;BME280;48597;49.030;1.822;2022-12-18T06:31:00;101422.91;;;17.86;31.54
62544;BME280;48597;49.030;1.822;2022-12-18T06:33:28;101427.81;;;17.85;31.63
62544;BME280;48597;49.030;1.822;2022-12-18T06:35:54;101432.69;;;17.85;31.88
62544;BME280;48597;49.030;1.822;2022-12-18T06:38:31;101429.84;;;17.85;31.64
62544;BME280;48597;49.030;1.822;2022-12-18T06:40:56;101427.84;;;17.82;31.58
62544;BME280;48597;49.030;1.822;2022-12-18T06:43:22;101413.56;;;17.82;31.54
62544;BME280;48597;49.030;1.822;2022-12-18T06:45:47;101404.63;;;17.80;31.58
62544;BME280;48597;49.030;1.822;2022-12-18T06:48:20;101403.78;;;17.83;31.26
62544;BME280;48597;49.030;1.822;2022-12-18T06:50:46;101402.97;;;17.82;31.26
62544;BME280;48597;49.030;1.822;2022-12-18T06:53:11;101385.88;;;17.82;31.00
62544;BME280;48597;49.030;1.822;2022-12-18T06:55:37;101378.94;;;17.83;31.18
62544;BME280;48597;49.030;1.822;2022-12-18T06:58:02;101381.78;;;17.83;31.19
62544;BME280;48597;49.030;1.822;2022-12-18T07:00:27;101372.38;;;17.87;31.32
62544;BME280;48597;49.030;1.822;2022-12-18T07:02:53;101383.00;;;17.86;31.18
62544;BME280;48597;49.030;1.822;2022-12-18T07:05:18;101383.81;;;17.83;30.85
62544;BME280;48597;49.030;1.822;2022-12-18T07:07:45;101385.44;;;17.84;30.91
62544;BME280;48597;49.030;1.822;2022-12-18T07:10:10;101384.59;;;17.87;30.72
62544;BME280;48597;49.030;1.822;2022-12-18T07:12:36;101380.13;;;17.86;30.76
62544;BME280;48597;49.030;1.822;2022-12-18T07:15:02;101378.06;;;17.90;30.74
62544;BME280;48597;49.030;1.822;2022-12-18T07:17:27;101378.91;;;17.87;31.06
62544;BME280;48597;49.030;1.822;2022-12-18T07:19:53;101373.19;;;17.87;30.96
62544;BME280;48597;49.030;1.822;2022-12-18T07:22:20;101381.75;;;17.87;30.75
62544;BME280;48597;49.030;1.822;2022-12-18T07:24:45;101378.09;;;17.87;30.74
62544;BME280;48597;49.030;1.822;2022-12-18T07:27:12;101382.16;;;17.89;31.13
62544;BME280;48597;49.030;1.822;2022-12-18T07:29:37;101382.16;;;17.89;31.06
62544;BME280;48597;49.030;1.822;2022-12-18T07:32:03;101394.31;;;17.93;30.77
62544;BME280;48597;49.030;1.822;2022-12-18T07:34:30;101391.44;;;17.93;30.99
62544;BME280;48597;49.030;1.822;2022-12-18T07:36:57;101385.75;;;17.93;31.09
62544;BME280;48597;49.030;1.822;2022-12-18T07:39:23;101382.09;;;17.93;30.65
62544;BME280;48597;49.030;1.822;2022-12-18T07:41:49;101384.50;;;17.94;30.81
62544;BME280;48597;49.030;1.822;2022-12-18T07:44:36;101384.50;;;17.94;31.02
62544;BME280;48597;49.030;1.822;2022-12-18T07:47:02;101382.03;;;17.96;30.88
62544;BME280;48597;49.030;1.822;2022-12-18T07:49:28;101377.97;;;17.97;31.05
62544;BME280;48597;49.030;1.822;2022-12-18T07:51:55;101372.66;;;17.99;30.75
62544;BME280;48597;49.030;1.822;2022-12-18T07:54:24;101371.84;;;17.99;30.99
62544;BME280;48597;49.030;1.822;2022-12-18T07:56:51;101360.81;;;18.01;30.82
62544;BME280;48597;49.030;1.822;2022-12-18T07:59:16;101359.59;;;18.02;31.18
62544;BME280;48597;49.030;1.822;2022-12-18T08:01:43;101356.31;;;18.03;31.14
62544;BME280;48597;49.030;1.822;2022-12-18T08:04:08;101364.00;;;18.06;31.11
62544;BME280;48597;49.030;1.822;2022-12-18T08:06:34;101367.66;;;18.07;31.01
62544;BME280;48597;49.030;1.822;2022-12-18T08:09:00;101368.84;;;18.09;31.11
62544;BME280;48597;49.030;1.822;2022-12-18T08:11:27;101383.06;;;18.13;31.21
62544;BME280;48597;49.030;1.822;2022-12-18T08:13:53;101380.63;;;18.15;31.08
62544;BME280;48597;49.030;1.822;2022-12-18T08:16:19;101384.66;;;18.17;31.13
62544;BME280;48597;49.030;1.822;2022-12-18T08:18:44;101384.22;;;18.19;31.01
62544;BME280;48597;49.030;1.822;2022-12-18T08:21:14;101395.59;;;18.23;31.25
62544;BME280;48597;49.030;1.822;2022-12-18T08:23:40;101395.53;;;18.26;31.16
62544;BME280;48597;49.030;1.822;2022-12-18T08:26:06;101390.22;;;18.28;31.07
62544;BME280;48597;49.030;1.822;2022-12-18T08:28:31;101387.75;;;18.30;31.22
62544;BME280;48597;49.030;1.822;2022-12-18T08:30:57;101393.00;;;18.32;31.35
62544;BME280;48597;49.030;1.822;2022-12-18T08:33:23;101384.41;;;18.35;31.29
62544;BME280;48597;49.030;1.822;2022-12-18T08:35:48;101388.47;;;18.38;31.11
62544;BME280;48597;49.030;1.822;2022-12-18T08:38:14;101400.25;;;18.40;31.39
62544;BME280;48597;49.030;1.822;2022-12-18T08:40:39;101400.22;;;18.43;31.27
62544;BME280;48597;49.030;1.822;2022-12-18T08:43:04;101416.47;;;18.46;31.27
62544;BME280;48597;49.030;1.822;2022-12-18T08:45:48;101409.94;;;18.46;31.06
62544;BME280;48597;49.030;1.822;2022-12-18T08:48:14;101412.78;;;18.49;31.08
62544;BME280;48597;49.030;1.822;2022-12-18T08:50:41;101414.38;;;18.50;30.99
62544;BME280;48597;49.030;1.822;2022-12-18T08:53:06;101414.78;;;18.52;31.27
62544;BME280;48597;49.030;1.822;2022-12-18T08:55:33;101409.06;;;18.52;31.09
62544;BME280;48597;49.030;1.822;2022-12-18T08:57:59;101407.41;;;18.55;31.21
62544;BME280;48597;49.030;1.822;2022-12-18T09:00:25;101404.91;;;18.57;31.29
62544;BME280;48597;49.030;1.822;2022-12-18T09:02:50;101404.09;;;18.60;31.24
62544;BME280;48597;49.030;1.822;2022-12-18T09:05:17;101395.13;;;18.58;31.07
62544;BME280;48597;49.030;1.822;2022-12-18T09:07:42;101391.03;;;18.59;31.22
62544;BME280;48597;49.030;1.822;2022-12-18T09:10:07;101384.09;;;18.60;31.32
62544;BME280;48597;49.030;1.822;2022-12-18T09:12:33;101384.91;;;18.61;30.96
62544;BME280;48597;49.030;1.822;2022-12-18T09:14:58;101388.94;;;18.63;31.18
62544;BME280;48597;49.030;1.822;2022-12-18T09:17:24;101397.94;;;18.62;31.07
62544;BME280;48597;49.030;1.822;2022-12-18T09:19:49;101397.53;;;18.63;31.04
62544;BME280;48597;49.030;1.822;2022-12-18T09:22:14;101391.81;;;18.63;31.20
62544;BME280;48597;49.030;1.822;2022-12-18T09:24:40;101386.09;;;18.63;31.00
62544;BME280;48597;49.030;1.822;2022-12-18T09:27:05;101388.53;;;18.65;31.10
62544;BME280;48597;49.030;1.822;2022-12-18T09:29:32;101386.88;;;18.67;31.19
62544;BME280;48597;49.030;1.822;2022-12-18T09:31:57;101384.00;;;18.67;30.91
62544;BME280;48597;49.030;1.822;2022-12-18T09:34:22;101390.09;;;18.69;30.94
62544;BME280;48597;49.030;1.822;2022-12-18T09:36:48;101385.16;;;18.70;31.01
62544;BME280;48597;49.030;1.822;2022-12-18T09:39:14;101374.94;;;18.72;31.14
62544;BME280;48597;49.030;1.822;2022-12-18T09:41:46;101389.59;;;18.74;31.03
62544;BME280;48597;49.030;1.822;2022-12-18T09:49:35;101387.50;;;18.78;30.92
62544;BME280;48597;49.030;1.822;2022-12-18T09:52:12;101395.66;;;18.80;30.58
62544;BME280;48597;49.030;1.822;2022-12-18T09:54:41;101394.00;;;18.82;31.09
62544;BME280;48597;49.030;1.822;2022-12-18T09:57:13;101395.56;;;18.83;30.95
62544;BME280;48597;49.030;1.822;2022-12-18T09:59:42;101391.47;;;18.84;30.97
62544;BME280;48597;49.030;1.822;2022-12-18T10:02:14;101398.81;;;18.85;31.00
62544;BME280;48597;49.030;1.822;2022-12-18T10:04:40;101392.19;;;18.92;31.14
62544;BME280;48597;49.030;1.822;2022-12-18T10:07:19;101387.72;;;18.91;31.20
62544;BME280;48597;49.030;1.822;2022-12-18T10:09:56;101393.44;;;18.91;30.90
62544;BME280;48597;49.030;1.822;2022-12-18T10:15:28;101372.63;;;18.90;30.79
62544;BME280;48597;49.030;1.822;2022-12-18T10:18:16;101376.25;;;18.95;31.36
62544;BME280;48597;49.030;1.822;2022-12-18T10:20:48;101370.53;;;18.95;30.93
62544;BME280;48597;49.030;1.822;2022-12-18T10:26:10;101385.63;;;18.95;30.77
62544;BME280;48597;49.030;1.822;2022-12-18T10:28:37;101384.38;;;18.96;30.79
62544;BME280;48597;49.030;1.822;2022-12-18T10:31:14;101376.59;;;18.97;30.66
62544;BME280;48597;49.030;1.822;2022-12-18T10:33:42;101382.78;;;18.95;30.92
62544;BME280;48597;49.030;1.822;2022-12-18T10:36:07;101377.84;;;18.96;31.12
62544;BME280;48597;49.030;1.822;2022-12-18T10:38:33;101375.78;;;18.96;30.92
62544;BME280;48597;49.030;1.822;2022-12-18T10:41:01;101371.34;;;18.95;30.93
62544;BME280;48597;49.030;1.822;2022-12-18T10:46:00;101361.16;;;18.94;31.01
62544;BME280;48597;49.030;1.822;2022-12-18T10:48:27;101356.69;;;18.93;30.88
62544;BME280;48597;49.030;1.822;2022-12-18T10:50:53;101353.81;;;18.93;30.82
62544;BME280;48597;49.030;1.822;2022-12-18T10:53:24;101356.69;;;18.93;30.71
62544;BME280;48597;49.030;1.822;2022-12-18T10:55:52;101355.06;;;18.92;30.96
62544;BME280;48597;49.030;1.822;2022-12-18T11:03:44;101354.63;;;18.94;30.48
62544;BME280;48597;49.030;1.822;2022-12-18T11:06:13;101354.63;;;18.94;30.76
62544;BME280;48597;49.030;1.822;2022-12-18T11:08:41;101348.50;;;18.95;30.63
62544;BME280;48597;49.030;1.822;2022-12-18T11:11:15;101347.22;;;18.96;30.50
62544;BME280;48597;49.030;1.822;2022-12-18T11:13:52;101348.03;;;18.97;30.87
62544;BME280;48597;49.030;1.822;2022-12-18T11:16:21;101343.56;;;18.96;30.74
62544;BME280;48597;49.030;1.822;2022-12-18T11:18:46;101341.09;;;18.98;30.82
62544;BME280;48597;49.030;1.822;2022-12-18T11:21:12;101333.75;;;18.97;30.71
62544;BME280;48597;49.030;1.822;2022-12-18T11:23:47;101332.09;;;18.99;30.52
62544;BME280;48597;49.030;1.822;2022-12-18T11:26:14;101324.75;;;18.98;30.82
62544;BME280;48597;49.030;1.822;2022-12-18T11:28:51;101331.66;;;19.01;30.82
62544;BME280;48597;49.030;1.822;2022-12-18T11:31:27;101321.84;;;19.02;30.71
62544;BME280;48597;49.030;1.822;2022-12-18T11:36:18;101312.03;;;19.03;30.72
62544;BME280;48597;49.030;1.822;2022-12-18T11:38:46;101311.59;;;19.04;30.84
62544;BME280;48597;49.030;1.822;2022-12-18T11:41:54;101317.69;;;19.06;30.56
62544;BME280;48597;49.030;1.822;2022-12-18T11:44:52;101307.50;;;19.05;30.57
62544;BME280;48597;49.030;1.822;2022-12-18T11:49:52;101310.34;;;19.05;30.65
62544;BME280;48597;49.030;1.822;2022-12-18T11:52:40;101305.44;;;19.06;30.63
62544;BME280;48597;49.030;1.822;2022-12-18T11:55:14;101299.75;;;19.06;30.78
62544;BME280;48597;49.030;1.822;2022-12-18T12:00:25;101294.03;;;19.06;30.74
62544;BME280;48597;49.030;1.822;2022-12-18T12:06:28;101285.03;;;19.07;30.86
62544;BME280;48597;49.030;1.822;2022-12-18T12:09:07;101277.25;;;19.08;31.10
62544;BME280;48597;49.030;1.822;2022-12-18T12:14:49;101271.53;;;19.08;30.63
62544;BME280;48597;49.030;1.822;2022-12-18T12:22:49;101261.69;;;19.09;30.77
62544;BME280;48597;49.030;1.822;2022-12-18T12:28:33;101264.56;;;19.09;30.98
62544;BME280;48597;49.030;1.822;2022-12-18T12:39:27;101255.13;;;19.12;31.22
62544;BME280;48597;49.030;1.822;2022-12-18T12:41:55;101250.66;;;19.11;31.34
62544;BME280;48597;49.030;1.822;2022-12-18T12:44:50;101247.34;;;19.12;30.80
62544;BME280;48597;49.030;1.822;2022-12-18T12:47:24;101242.44;;;19.13;30.94
62544;BME280;48597;49.030;1.822;2022-12-18T12:49:52;101236.75;;;19.13;30.82
62544;BME280;48597;49.030;1.822;2022-12-18T12:54:55;101227.72;;;19.14;31.10
62544;BME280;48597;49.030;1.822;2022-12-18T12:57:27;101221.22;;;19.14;30.99
62544;BME280;48597;49.030;1.822;2022-12-18T13:00:14;101224.06;;;19.14;31.13
62544;BME280;48597;49.030;1.822;2022-12-18T13:03:12;101232.25;;;19.12;30.91
62544;BME280;48597;49.030;1.822;2022-12-18T13:05:58;101212.25;;;19.12;30.68
62544;BME280;48597;49.030;1.822;2022-12-18T13:08:28;101215.94;;;19.12;31.05
62544;BME280;48597;49.030;1.822;2022-12-18T13:10:55;101208.59;;;19.11;31.14
62544;BME280;48597;49.030;1.822;2022-12-18T13:13:55;101210.22;;;19.12;30.77
62544;BME280;48597;49.030;1.822;2022-12-18T13:16:23;101212.25;;;19.12;31.12
62544;BME280;48597;49.030;1.822;2022-12-18T13:18:51;101208.97;;;19.13;30.85
62544;BME280;48597;49.030;1.822;2022-12-18T13:21:43;101213.88;;;19.13;30.84
62544;BME280;48597;49.030;1.822;2022-12-18T13:24:31;101210.59;;;19.14;30.91
62544;BME280;48597;49.030;1.822;2022-12-18T13:26:57;101208.97;;;19.13;30.93
62544;BME280;48597;49.030;1.822;2022-12-18T13:29:44;101198.34;;;19.14;30.96
62544;BME280;48597;49.030;1.822;2022-12-18T13:32:23;101204.88;;;19.14;31.21
62544;BME280;48597;49.030;1.822;2022-12-18T13:37:43;101191.88;;;19.10;30.95
62544;BME280;48597;49.030;1.822;2022-12-18T13:45:50;101186.53;;;19.12;30.75
62544;BME280;48597;49.030;1.822;2022-12-18T13:48:25;101173.88;;;19.13;31.09
62544;BME280;48597;49.030;1.822;2022-12-18T13:51:06;101168.16;;;19.13;31.03
62544;BME280;48597;49.030;1.822;2022-12-18T13:53:36;101163.25;;;19.13;30.91
62544;BME280;48597;49.030;1.822;2022-12-18T13:56:04;101160.78;;;19.15;31.12
62544;BME280;48597;49.030;1.822;2022-12-18T13:58:30;101158.72;;;19.16;31.02
62544;BME280;48597;49.030;1.822;2022-12-18T14:00:55;101154.63;;;19.17;31.06
62544;BME280;48597;49.030;1.822;2022-12-18T14:03:28;101153.00;;;19.16;30.95
62544;BME280;48597;49.030;1.822;2022-12-18T14:06:01;101147.28;;;19.16;31.11
62544;BME280;48597;49.030;1.822;2022-12-18T14:08:32;101142.38;;;19.16;30.89
62544;BME280;48597;49.030;1.822;2022-12-18T14:11:00;101142.81;;;19.15;31.00
62544;BME280;48597;49.030;1.822;2022-12-18T14:13:29;101137.91;;;19.15;30.96
62544;BME280;48597;49.030;1.822;2022-12-18T14:15:55;101138.72;;;19.16;31.02